sensor_id;sensor_type;location;lat;lon;timestamp;pressure;altitude;pressure_sealevel;temperature;humidity
18533;BME280;9396;51.510;11.934;2023-02-18T00:00:16;100844.91;;;7.78;92.17
18533;BME280;9396;51.510;11.934;2023-02-18T00:02:43;100856.31;;;7.78;92.19
18533;BME280;9396;51.510;11.934;2023-02-18T00:05:10;100857.03;;;7.80;92.79
18533;BME280;9396;51.510;11.934;2023-02-18T00:07:38;100847.16;;;7.82;92.32
18533;BME280;9396;51.510;11.934;2023-02-18T00:10:08;100862.91;;;7.84;92.54
18533;BME280;9396;51.510;11.934;2023-02-18T00:12:36;100861.28;;;8.03;91.63
18533;BME280;9396;51.510;11.934;2023-02-18T00:15:03;100858.56;;;7.94;93.63
18533;BME280;9396;51.510;11.934;2023-02-18T00:17:32;100860.72;;;7.89;93.13
18533;BME280;9396;51.510;11.934;2023-02-18T00:19:59;100853.31;;;7.83;93.93
18533;BME280;9396;51.510;11.934;2023-02-18T00:22:25;100856.34;;;7.67;94.90
18533;BME280;9396;51.510;11.934;2023-02-18T00:24:52;100851.25;;;7.75;93.77
18533;BME280;9396;51.510;11.934;2023-02-18T00:27:18;100851.81;;;7.58;94.50
18533;BME280;9396;51.510;11.934;2023-02-18T00:29:45;100843.72;;;7.59;95.14
18533;BME280;9396;51.510;11.934;2023-02-18T00:32:12;100843.38;;;7.53;96.25
18533;BME280;9396;51.510;11.934;2023-02-18T00:34:40;100847.44;;;7.68;95.35
18533;BME280;9396;51.510;11.934;2023-02-18T00:37:06;100840.69;;;7.64;95.83
18533;BME280;9396;51.510;11.934;2023-02-18T00:39:33;100848.03;;;7.72;95.73
18533;BME280;9396;51.510;11.934;2023-02-18T00:41:59;100852.75;;;7.46;95.37
18533;BME280;9396;51.510;11.934;2023-02-18T00:44:26;100848.44;;;7.45;96.10
18533;BME280;9396;51.510;11.934;2023-02-18T00:46:53;100853.34;;;7.49;96.00
18533;BME280;9396;51.510;11.934;2023-02-18T00:49:19;100850.09;;;7.57;95.96
18533;BME280;9396;51.510;11.934;2023-02-18T00:51:47;100850.72;;;7.49;94.75
18533;BME280;9396;51.510;11.934;2023-02-18T00:54:14;100868.31;;;7.39;95.78
18533;BME280;9396;51.510;11.934;2023-02-18T00:56:41;100868.19;;;7.41;96.08
18533;BME280;9396;51.510;11.934;2023-02-18T00:59:08;100859.16;;;7.43;96.23
18533;BME280;9396;51.510;11.934;2023-02-18T01:01:34;100858.44;;;7.41;96.17
18533;BME280;9396;51.510;11.934;2023-02-18T01:04:01;100872.88;;;7.48;96.84
18533;BME280;9396;51.510;11.934;2023-02-18T01:06:27;100866.72;;;7.48;95.69
18533;BME280;9396;51.510;11.934;2023-02-18T01:08:55;100857.00;;;7.48;96.35
18533;BME280;9396;51.510;11.934;2023-02-18T01:11:22;100871.53;;;7.54;96.05
18533;BME280;9396;51.510;11.934;2023-02-18T01:13:49;100873.47;;;7.52;96.90
18533;BME280;9396;51.510;11.934;2023-02-18T01:16:16;100865.72;;;7.60;96.35
18533;BME280;9396;51.510;11.934;2023-02-18T01:18:43;100867.78;;;7.68;96.69
18533;BME280;9396;51.510;11.934;2023-02-18T01:21:09;100866.44;;;7.73;96.98
18533;BME280;9396;51.510;11.934;2023-02-18T01:23:37;100868.63;;;7.68;97.18
18533;BME280;9396;51.510;11.934;2023-02-18T01:26:06;100866.94;;;7.67;97.27
18533;BME280;9396;51.510;11.934;2023-02-18T01:28:33;100856.84;;;7.61;97.82
18533;BME280;9396;51.510;11.934;2023-02-18T01:31:04;100780.66;;;7.11;96.90
18533;BME280;9396;51.510;11.934;2023-02-18T01:33:32;100853.13;;;7.64;97.42
18533;BME280;9396;51.510;11.934;2023-02-18T01:35:58;100857.00;;;7.48;97.30
18533;BME280;9396;51.510;11.934;2023-02-18T01:38:25;100864.53;;;7.53;98.57
18533;BME280;9396;51.510;11.934;2023-02-18T01:40:52;100863.59;;;7.43;98.58
18533;BME280;9396;51.510;11.934;2023-02-18T01:43:20;100863.94;;;7.49;97.95
18533;BME280;9396;51.510;11.934;2023-02-18T01:46:15;100875.03;;;7.43;98.85
18533;BME280;9396;51.510;11.934;2023-02-18T01:48:46;100875.91;;;7.33;99.42
18533;BME280;9396;51.510;11.934;2023-02-18T01:51:16;100870.59;;;7.44;98.67
18533;BME280;9396;51.510;11.934;2023-02-18T01:53:49;100861.44;;;7.48;99.08
18533;BME280;9396;51.510;11.934;2023-02-18T01:56:22;100864.09;;;7.37;97.10
18533;BME280;9396;51.510;11.934;2023-02-18T01:58:52;100870.59;;;7.44;97.71
18533;BME280;9396;51.510;11.934;2023-02-18T02:01:20;100872.13;;;7.46;97.01
18533;BME280;9396;51.510;11.934;2023-02-18T02:03:47;100885.25;;;7.59;97.34
18533;BME280;9396;51.510;11.934;2023-02-18T02:06:16;100878.28;;;7.58;96.67
18533;BME280;9396;51.510;11.934;2023-02-18T02:08:44;100875.72;;;7.68;96.73
18533;BME280;9396;51.510;11.934;2023-02-18T02:11:30;100872.25;;;7.67;96.18
18533;BME280;9396;51.510;11.934;2023-02-18T02:14:10;100864.06;;;7.59;97.46
18533;BME280;9396;51.510;11.934;2023-02-18T02:16:45;100881.00;;;7.68;96.44
18533;BME280;9396;51.510;11.934;2023-02-18T02:19:43;100874.88;;;7.67;95.93
18533;BME280;9396;51.510;11.934;2023-02-18T02:22:46;100874.31;;;7.64;97.84
18533;BME280;9396;51.510;11.934;2023-02-18T02:34:42;100863.97;;;7.92;96.47
18533;BME280;9396;51.510;11.934;2023-02-18T02:37:15;100858.16;;;7.98;97.10
18533;BME280;9396;51.510;11.934;2023-02-18T02:39:56;100849.72;;;8.04;96.61
18533;BME280;9396;51.510;11.934;2023-02-18T02:42:34;100858.16;;;7.98;96.38
18533;BME280;9396;51.510;11.934;2023-02-18T02:45:09;100744.31;;;7.35;96.07
18533;BME280;9396;51.510;11.934;2023-02-18T02:47:40;100848.03;;;8.03;97.05
18533;BME280;9396;51.510;11.934;2023-02-18T02:50:14;100845.66;;;8.00;96.34
18533;BME280;9396;51.510;11.934;2023-02-18T02:52:49;100851.91;;;7.99;96.60
18533;BME280;9396;51.510;11.934;2023-02-18T02:55:17;100832.13;;;8.03;97.39
18533;BME280;9396;51.510;11.934;2023-02-18T02:57:47;100838.16;;;8.05;96.94
18533;BME280;9396;51.510;11.934;2023-02-18T03:00:17;100734.66;;;7.45;95.98
18533;BME280;9396;51.510;11.934;2023-02-18T03:05:52;100825.66;;;7.96;96.19
18533;BME280;9396;51.510;11.934;2023-02-18T03:08:37;100824.94;;;7.94;96.60
18533;BME280;9396;51.510;11.934;2023-02-18T03:11:08;100816.19;;;7.94;95.97
18533;BME280;9396;51.510;11.934;2023-02-18T03:13:52;100822.66;;;8.01;96.57
18533;BME280;9396;51.510;11.934;2023-02-18T03:16:26;100822.13;;;8.07;96.24
18533;BME280;9396;51.510;11.934;2023-02-18T03:18:58;100818.75;;;8.05;96.63
18533;BME280;9396;51.510;11.934;2023-02-18T03:21:31;100823.25;;;8.04;96.69
18533;BME280;9396;51.510;11.934;2023-02-18T03:24:01;100828.53;;;8.04;96.48
18533;BME280;9396;51.510;11.934;2023-02-18T03:26:31;100823.25;;;8.04;97.03
18533;BME280;9396;51.510;11.934;2023-02-18T03:29:01;100820.09;;;7.99;96.47
18533;BME280;9396;51.510;11.934;2023-02-18T03:31:30;100823.25;;;8.04;95.95
18533;BME280;9396;51.510;11.934;2023-02-18T03:34:01;100818.25;;;8.11;96.26
18533;BME280;9396;51.510;11.934;2023-02-18T03:36:31;100805.41;;;8.06;96.53
18533;BME280;9396;51.510;11.934;2023-02-18T03:39:00;100814.03;;;8.08;95.52
18533;BME280;9396;51.510;11.934;2023-02-18T03:41:28;100808.66;;;8.10;95.39
18533;BME280;9396;51.510;11.934;2023-02-18T03:43:59;100799.41;;;8.04;96.46
18533;BME280;9396;51.510;11.934;2023-02-18T03:46:26;100808.75;;;8.08;96.68
18533;BME280;9396;51.510;11.934;2023-02-18T03:48:53;100802.94;;;8.14;96.34
18533;BME280;9396;51.510;11.934;2023-02-18T03:51:20;100797.00;;;8.22;96.68
18533;BME280;9396;51.510;11.934;2023-02-18T03:53:48;100807.25;;;8.26;96.96
18533;BME280;9396;51.510;11.934;2023-02-18T03:56:15;100817.22;;;8.23;96.34
18533;BME280;9396;51.510;11.934;2023-02-18T03:58:42;100812.03;;;8.32;95.94
18533;BME280;9396;51.510;11.934;2023-02-18T04:01:09;100805.75;;;8.33;95.46
18533;BME280;9396;51.510;11.934;2023-02-18T04:03:36;100803.25;;;8.32;95.52
18533;BME280;9396;51.510;11.934;2023-02-18T04:06:03;100803.38;;;8.30;96.05
18533;BME280;9396;51.510;11.934;2023-02-18T04:08:30;100804.97;;;8.42;95.46
18533;BME280;9396;51.510;11.934;2023-02-18T04:10:58;100813.78;;;8.43;95.76
18533;BME280;9396;51.510;11.934;2023-02-18T04:13:25;100812.03;;;8.32;95.86
18533;BME280;9396;51.510;11.934;2023-02-18T04:15:52;100820.50;;;8.15;96.36
18533;BME280;9396;51.510;11.934;2023-02-18T04:18:19;100812.69;;;8.25;96.84
18533;BME280;9396;51.510;11.934;2023-02-18T04:20:46;100808.44;;;8.22;96.70
18533;BME280;9396;51.510;11.934;2023-02-18T04:23:14;100810.19;;;8.12;97.38
18533;BME280;9396;51.510;11.934;2023-02-18T04:25:40;100802.38;;;8.11;97.72
18533;BME280;9396;51.510;11.934;2023-02-18T04:28:09;100801.22;;;8.24;97.08
18533;BME280;9396;51.510;11.934;2023-02-18T04:30:37;100797.66;;;8.14;97.79
18533;BME280;9396;51.510;11.934;2023-02-18T04:33:04;100797.78;;;8.13;97.98
18533;BME280;9396;51.510;11.934;2023-02-18T04:35:31;100796.50;;;8.07;98.82
18533;BME280;9396;51.510;11.934;2023-02-18T04:37:57;100789.03;;;8.01;99.06
18533;BME280;9396;51.510;11.934;2023-02-18T04:40:24;100788.41;;;8.09;99.84
18533;BME280;9396;51.510;11.934;2023-02-18T04:42:54;100780.28;;;8.21;99.42
18533;BME280;9396;51.510;11.934;2023-02-18T04:45:22;100770.66;;;8.20;99.11
18533;BME280;9396;51.510;11.934;2023-02-18T04:47:49;100765.84;;;8.14;100.00
18533;BME280;9396;51.510;11.934;2023-02-18T04:50:15;100763.72;;;8.08;100.00
18533;BME280;9396;51.510;11.934;2023-02-18T04:52:42;100768.00;;;8.20;100.00
18533;BME280;9396;51.510;11.934;2023-02-18T04:55:09;100767.53;;;8.15;100.00
18533;BME280;9396;51.510;11.934;2023-02-18T04:57:35;100759.84;;;8.12;100.00
18533;BME280;9396;51.510;11.934;2023-02-18T05:00:02;100765.34;;;8.20;100.00
18533;BME280;9396;51.510;11.934;2023-02-18T05:02:32;100759.34;;;8.18;100.00
18533;BME280;9396;51.510;11.934;2023-02-18T05:04:59;100757.28;;;8.22;100.00
18533;BME280;9396;51.510;11.934;2023-02-18T05:07:26;100748.00;;;8.27;100.00
18533;BME280;9396;51.510;11.934;2023-02-18T05:09:52;100754.59;;;8.33;100.00
18533;BME280;9396;51.510;11.934;2023-02-18T05:12:19;100743.72;;;8.36;100.00
18533;BME280;9396;51.510;11.934;2023-02-18T05:14:46;100730.59;;;8.34;100.00
18533;BME280;9396;51.510;11.934;2023-02-18T05:17:13;100726.59;;;8.49;100.00
18533;BME280;9396;51.510;11.934;2023-02-18T05:19:41;100713.09;;;8.52;100.00
18533;BME280;9396;51.510;11.934;2023-02-18T05:22:07;100718.41;;;8.52;100.00
18533;BME280;9396;51.510;11.934;2023-02-18T05:24:34;100710.63;;;8.60;100.00
18533;BME280;9396;51.510;11.934;2023-02-18T05:27:01;100707.97;;;8.60;100.00
18533;BME280;9396;51.510;11.934;2023-02-18T05:29:27;100705.31;;;8.60;100.00
18533;BME280;9396;51.510;11.934;2023-02-18T05:31:54;100704.94;;;8.65;100.00
18533;BME280;9396;51.510;11.934;2023-02-18T05:34:20;100696.41;;;8.71;100.00
18533;BME280;9396;51.510;11.934;2023-02-18T05:36:48;100702.00;;;8.78;100.00
18533;BME280;9396;51.510;11.934;2023-02-18T05:39:15;100690.06;;;8.93;100.00
18533;BME280;9396;51.510;11.934;2023-02-18T05:41:42;100694.41;;;9.03;100.00
18533;BME280;9396;51.510;11.934;2023-02-18T05:44:08;100696.91;;;9.05;100.00
18533;BME280;9396;51.510;11.934;2023-02-18T05:46:53;100688.97;;;8.95;100.00
18533;BME280;9396;51.510;11.934;2023-02-18T05:49:19;100693.94;;;8.89;100.00
18533;BME280;9396;51.510;11.934;2023-02-18T05:51:46;100688.50;;;8.81;100.00
18533;BME280;9396;51.510;11.934;2023-02-18T05:54:14;100688.31;;;8.73;100.00
18533;BME280;9396;51.510;11.934;2023-02-18T05:56:41;100692.47;;;8.56;100.00
18533;BME280;9396;51.510;11.934;2023-02-18T05:59:07;100692.84;;;8.51;100.00
18533;BME280;9396;51.510;11.934;2023-02-18T06:01:34;100686.84;;;8.49;100.00
18533;BME280;9396;51.510;11.934;2023-02-18T06:04:01;100686.47;;;8.54;100.00
18533;BME280;9396;51.510;11.934;2023-02-18T06:06:27;100689.78;;;8.46;100.00
18533;BME280;9396;51.510;11.934;2023-02-18T06:08:54;100688.69;;;8.58;100.00
18533;BME280;9396;51.510;11.934;2023-02-18T06:11:22;100678.47;;;8.44;100.00
18533;BME280;9396;51.510;11.934;2023-02-18T06:13:49;100678.41;;;8.65;100.00
18533;BME280;9396;51.510;11.934;2023-02-18T06:16:15;100678.03;;;8.79;100.00
18533;BME280;9396;51.510;11.934;2023-02-18T06:18:42;100673.72;;;8.88;100.00
18533;BME280;9396;51.510;11.934;2023-02-18T06:21:08;100659.16;;;8.63;100.00
18533;BME280;9396;51.510;11.934;2023-02-18T06:23:35;100658.94;;;8.45;100.00
18533;BME280;9396;51.510;11.934;2023-02-18T06:26:02;100653.66;;;8.45;100.00
18533;BME280;9396;51.510;11.934;2023-02-18T06:28:30;100659.03;;;8.34;100.00
18533;BME280;9396;51.510;11.934;2023-02-18T06:30:57;100647.72;;;8.32;100.00
18533;BME280;9396;51.510;11.934;2023-02-18T06:33:23;100642.16;;;8.35;100.00
18533;BME280;9396;51.510;11.934;2023-02-18T06:35:54;100640.50;;;8.34;100.00
18533;BME280;9396;51.510;11.934;2023-02-18T06:38:21;100640.50;;;8.34;100.00
18533;BME280;9396;51.510;11.934;2023-02-18T06:40:48;100632.66;;;8.33;100.00
18533;BME280;9396;51.510;11.934;2023-02-18T06:43:14;100630.69;;;8.25;100.00
18533;BME280;9396;51.510;11.934;2023-02-18T06:45:43;100627.81;;;8.17;100.00
18533;BME280;9396;51.510;11.934;2023-02-18T06:48:09;100623.31;;;8.29;100.00
18533;BME280;9396;51.510;11.934;2023-02-18T06:50:36;100625.09;;;8.28;100.00
18533;BME280;9396;51.510;11.934;2023-02-18T06:53:03;100620.94;;;8.35;100.00
18533;BME280;9396;51.510;11.934;2023-02-18T06:55:30;100613.50;;;8.59;100.00
18533;BME280;9396;51.510;11.934;2023-02-18T06:57:56;100608.06;;;8.71;100.00
18533;BME280;9396;51.510;11.934;2023-02-18T07:00:23;100603.31;;;8.64;100.00
18533;BME280;9396;51.510;11.934;2023-02-18T07:02:51;100593.81;;;8.62;100.00
18533;BME280;9396;51.510;11.934;2023-02-18T07:05:18;100597.97;;;8.55;100.00
18533;BME280;9396;51.510;11.934;2023-02-18T07:07:45;100583.38;;;8.70;100.00
18533;BME280;9396;51.510;11.934;2023-02-18T07:10:11;100589.78;;;8.68;100.00
18533;BME280;9396;51.510;11.934;2023-02-18T07:12:38;100587.53;;;8.53;100.00
18533;BME280;9396;51.510;11.934;2023-02-18T07:15:05;100571.06;;;8.69;100.00
18533;BME280;9396;51.510;11.934;2023-02-18T07:17:32;100571.38;;;8.85;100.00
18533;BME280;9396;51.510;11.934;2023-02-18T07:20:00;100570.25;;;8.97;100.00
18533;BME280;9396;51.510;11.934;2023-02-18T07:22:26;100551.69;;;9.07;100.00
18533;BME280;9396;51.510;11.934;2023-02-18T07:24:53;100545.69;;;9.14;100.00
18533;BME280;9396;51.510;11.934;2023-02-18T07:27:20;100544.28;;;9.20;100.00
18533;BME280;9396;51.510;11.934;2023-02-18T07:29:48;100534.06;;;9.25;100.00
18533;BME280;9396;51.510;11.934;2023-02-18T07:32:16;100532.81;;;9.29;100.00
18533;BME280;9396;51.510;11.934;2023-02-18T07:34:43;100525.41;;;9.32;100.00
18533;BME280;9396;51.510;11.934;2023-02-18T07:37:11;100514.66;;;9.34;100.00
18533;BME280;9396;51.510;11.934;2023-02-18T07:39:39;100524.00;;;9.38;100.00
18533;BME280;9396;51.510;11.934;2023-02-18T07:42:06;100519.38;;;9.40;100.00
18533;BME280;9396;51.510;11.934;2023-02-18T07:44:34;100527.31;;;9.40;100.00
18533;BME280;9396;51.510;11.934;2023-02-18T07:47:01;100517.41;;;9.42;100.00
18533;BME280;9396;51.510;11.934;2023-02-18T07:49:28;100511.84;;;9.45;100.00
18533;BME280;9396;51.510;11.934;2023-02-18T07:51:54;100516.84;;;9.48;100.00
18533;BME280;9396;51.510;11.934;2023-02-18T07:54:23;100517.69;;;9.48;100.00
18533;BME280;9396;51.510;11.934;2023-02-18T07:56:50;100515.72;;;9.50;100.00
18533;BME280;9396;51.510;11.934;2023-02-18T07:59:17;100517.53;;;9.50;100.00
18533;BME280;9396;51.510;11.934;2023-02-18T08:01:43;100506.53;;;9.26;100.00
18533;BME280;9396;51.510;11.934;2023-02-18T08:04:10;100495.38;;;9.32;100.00
18533;BME280;9396;51.510;11.934;2023-02-18T08:06:38;100492.00;;;9.30;100.00
18533;BME280;9396;51.510;11.934;2023-02-18T08:09:05;100495.13;;;9.16;100.00
18533;BME280;9396;51.510;11.934;2023-02-18T08:11:34;100482.56;;;9.08;100.00
18533;BME280;9396;51.510;11.934;2023-02-18T08:14:01;100486.59;;;9.03;100.00
18533;BME280;9396;51.510;11.934;2023-02-18T08:16:27;100473.91;;;9.06;100.00
18533;BME280;9396;51.510;11.934;2023-02-18T08:18:54;100472.78;;;9.09;100.00
18533;BME280;9396;51.510;11.934;2023-02-18T08:21:22;100476.00;;;9.03;100.00
18533;BME280;9396;51.510;11.934;2023-02-18T08:23:50;100480.44;;;9.12;100.00
18533;BME280;9396;51.510;11.934;2023-02-18T08:26:17;100474.88;;;9.15;100.00
18533;BME280;9396;51.510;11.934;2023-02-18T08:28:46;100366.94;;;8.59;100.00
18533;BME280;9396;51.510;11.934;2023-02-18T08:31:15;100462.13;;;9.28;100.00
18533;BME280;9396;51.510;11.934;2023-02-18T08:33:42;100449.78;;;9.36;100.00
18533;BME280;9396;51.510;11.934;2023-02-18T08:36:09;100439.44;;;9.43;100.00
18533;BME280;9396;51.510;11.934;2023-02-18T08:38:35;100443.88;;;9.52;100.00
18533;BME280;9396;51.510;11.934;2023-02-18T08:41:03;100425.88;;;9.46;100.00
18533;BME280;9396;51.510;11.934;2023-02-18T08:43:30;100388.94;;;9.25;100.00
18533;BME280;9396;51.510;11.934;2023-02-18T08:45:58;100433.81;;;9.55;100.00
18533;BME280;9396;51.510;11.934;2023-02-18T08:48:26;100429.59;;;9.62;100.00
18533;BME280;9396;51.510;11.934;2023-02-18T08:50:53;100424.28;;;9.62;100.00
18533;BME280;9396;51.510;11.934;2023-02-18T08:53:20;100433.75;;;9.65;100.00
18533;BME280;9396;51.510;11.934;2023-02-18T08:55:46;100437.63;;;9.70;100.00
18533;BME280;9396;51.510;11.934;2023-02-18T08:58:13;100416.94;;;9.74;100.00
18533;BME280;9396;51.510;11.934;2023-02-18T09:00:41;100418.31;;;9.78;100.00
18533;BME280;9396;51.510;11.934;2023-02-18T09:03:11;100424.16;;;9.82;100.00
18533;BME280;9396;51.510;11.934;2023-02-18T09:05:38;100419.16;;;9.79;100.00
18533;BME280;9396;51.510;11.934;2023-02-18T09:08:05;100423.03;;;9.84;100.00
18533;BME280;9396;51.510;11.934;2023-02-18T09:10:32;100404.28;;;9.86;100.00
18533;BME280;9396;51.510;11.934;2023-02-18T09:12:58;100402.34;;;9.88;100.00
18533;BME280;9396;51.510;11.934;2023-02-18T09:15:25;100398.38;;;9.92;100.00
18533;BME280;9396;51.510;11.934;2023-02-18T09:17:52;100396.41;;;9.94;100.00
18533;BME280;9396;51.510;11.934;2023-02-18T09:20:20;100394.66;;;10.02;100.00
18533;BME280;9396;51.510;11.934;2023-02-18T09:22:46;100392.84;;;10.03;100.00
18533;BME280;9396;51.510;11.934;2023-02-18T09:25:13;100379.88;;;10.00;100.00
18533;BME280;9396;51.510;11.934;2023-02-18T09:27:40;100376.59;;;10.06;100.00
18533;BME280;9396;51.510;11.934;2023-02-18T09:30:07;100362.19;;;10.08;100.00
18533;BME280;9396;51.510;11.934;2023-02-18T09:32:33;100354.44;;;10.15;100.00
18533;BME280;9396;51.510;11.934;2023-02-18T09:35:00;100351.72;;;10.24;100.00
18533;BME280;9396;51.510;11.934;2023-02-18T09:37:29;100350.59;;;10.27;100.00
18533;BME280;9396;51.510;11.934;2023-02-18T09:39:55;100355.59;;;10.30;100.00
18533;BME280;9396;51.510;11.934;2023-02-18T09:42:27;100334.09;;;10.41;100.00
18533;BME280;9396;51.510;11.934;2023-02-18T09:44:57;100335.06;;;10.40;100.00
18533;BME280;9396;51.510;11.934;2023-02-18T09:47:30;100332.78;;;10.45;100.00
18533;BME280;9396;51.510;11.934;2023-02-18T09:50:05;100324.88;;;10.53;100.00
18533;BME280;9396;51.510;11.934;2023-02-18T09:52:35;100325.25;;;10.58;100.00
18533;BME280;9396;51.510;11.934;2023-02-18T09:55:17;100326.13;;;10.66;100.00
18533;BME280;9396;51.510;11.934;2023-02-18T09:57:45;100318.88;;;10.76;100.00
18533;BME280;9396;51.510;11.934;2023-02-18T10:00:18;100320.91;;;10.82;100.00
18533;BME280;9396;51.510;11.934;2023-02-18T10:02:52;100308.78;;;10.88;100.00
18533;BME280;9396;51.510;11.934;2023-02-18T10:05:20;100319.34;;;10.98;100.00
18533;BME280;9396;51.510;11.934;2023-02-18T10:07:50;100296.69;;;10.94;100.00
18533;BME280;9396;51.510;11.934;2023-02-18T10:10:23;100288.25;;;10.98;100.00
18533;BME280;9396;51.510;11.934;2023-02-18T10:12:51;100286.22;;;11.00;100.00
18533;BME280;9396;51.510;11.934;2023-02-18T10:15:21;100280.63;;;11.03;100.00
18533;BME280;9396;51.510;11.934;2023-02-18T10:17:50;100286.97;;;11.10;100.00
18533;BME280;9396;51.510;11.934;2023-02-18T10:20:21;100257.91;;;11.25;100.00
18533;BME280;9396;51.510;11.934;2023-02-18T10:22:51;100260.78;;;11.55;100.00
18533;BME280;9396;51.510;11.934;2023-02-18T10:25:21;100273.38;;;11.71;100.00
18533;BME280;9396;51.510;11.934;2023-02-18T10:27:49;100260.03;;;11.79;100.00
18533;BME280;9396;51.510;11.934;2023-02-18T10:30:22;100259.06;;;11.80;100.00
18533;BME280;9396;51.510;11.934;2023-02-18T10:32:51;100263.38;;;11.73;100.00
18533;BME280;9396;51.510;11.934;2023-02-18T10:35:23;100274.34;;;11.70;100.00
18533;BME280;9396;51.510;11.934;2023-02-18T10:38:03;100257.72;;;11.76;100.00
18533;BME280;9396;51.510;11.934;2023-02-18T10:40:41;100273.50;;;11.69;100.00
18533;BME280;9396;51.510;11.934;2023-02-18T10:43:19;100268.19;;;11.77;100.00
18533;BME280;9396;51.510;11.934;2023-02-18T10:45:54;100282.88;;;11.81;100.00
18533;BME280;9396;51.510;11.934;2023-02-18T10:48:39;100264.72;;;11.85;100.00
18533;BME280;9396;51.510;11.934;2023-02-18T10:51:14;100269.72;;;11.88;100.00
18533;BME280;9396;51.510;11.934;2023-02-18T10:53:44;100283.38;;;11.85;100.00
18533;BME280;9396;51.510;11.934;2023-02-18T10:56:32;100263.72;;;11.86;100.00
18533;BME280;9396;51.510;11.934;2023-02-18T10:59:01;100268.19;;;11.85;100.00
18533;BME280;9396;51.510;11.934;2023-02-18T11:01:30;100253.38;;;11.91;100.00
18533;BME280;9396;51.510;11.934;2023-02-18T11:04:06;100263.06;;;11.92;100.00
18533;BME280;9396;51.510;11.934;2023-02-18T11:06:38;100263.72;;;11.86;100.00
18533;BME280;9396;51.510;11.934;2023-02-18T11:09:23;100265.53;;;11.77;100.00
18533;BME280;9396;51.510;11.934;2023-02-18T11:11:59;100256.03;;;11.75;100.00
18533;BME280;9396;51.510;11.934;2023-02-18T11:14:38;100255.72;;;11.78;100.00
18533;BME280;9396;51.510;11.934;2023-02-18T11:17:15;100254.72;;;11.71;100.00
18533;BME280;9396;51.510;11.934;2023-02-18T11:19:42;100246.03;;;11.69;100.00
18533;BME280;9396;51.510;11.934;2023-02-18T11:22:19;100240.38;;;11.72;100.00
18533;BME280;9396;51.510;11.934;2023-02-18T11:24:52;100112.09;;;10.95;100.00
18533;BME280;9396;51.510;11.934;2023-02-18T11:27:23;100231.41;;;11.73;100.00
18533;BME280;9396;51.510;11.934;2023-02-18T11:29:53;100234.72;;;11.67;100.00
18533;BME280;9396;51.510;11.934;2023-02-18T11:32:21;100225.38;;;11.79;100.00
18533;BME280;9396;51.510;11.934;2023-02-18T11:34:51;100226.72;;;11.75;100.00
18533;BME280;9396;51.510;11.934;2023-02-18T11:37:19;100230.72;;;11.79;100.00
18533;BME280;9396;51.510;11.934;2023-02-18T11:39:50;100230.56;;;11.72;100.00
18533;BME280;9396;51.510;11.934;2023-02-18T11:42:19;100235.88;;;11.80;100.00
18533;BME280;9396;51.510;11.934;2023-02-18T11:44:51;100232.91;;;11.83;100.00
18533;BME280;9396;51.510;11.934;2023-02-18T11:47:27;100221.22;;;11.84;100.00
18533;BME280;9396;51.510;11.934;2023-02-18T11:50:14;100219.09;;;11.80;100.00
18533;BME280;9396;51.510;11.934;2023-02-18T11:52:43;100212.75;;;11.81;100.00
18533;BME280;9396;51.510;11.934;2023-02-18T11:55:16;100222.06;;;11.85;100.00
18533;BME280;9396;51.510;11.934;2023-02-18T11:57:46;100218.75;;;11.83;100.00
18533;BME280;9396;51.510;11.934;2023-02-18T12:00:20;100212.41;;;11.84;100.00
18533;BME280;9396;51.510;11.934;2023-02-18T12:02:49;100212.41;;;11.84;100.00
18533;BME280;9396;51.510;11.934;2023-02-18T12:05:21;100209.56;;;11.85;100.00
18533;BME280;9396;51.510;11.934;2023-02-18T12:07:49;100211.06;;;11.88;100.00
18533;BME280;9396;51.510;11.934;2023-02-18T12:10:23;100201.41;;;11.95;100.00
18533;BME280;9396;51.510;11.934;2023-02-18T12:12:56;100210.41;;;11.94;100.00
18533;BME280;9396;51.510;11.934;2023-02-18T12:15:33;100205.75;;;11.96;100.00
18533;BME280;9396;51.510;11.934;2023-02-18T12:18:27;100182.25;;;11.92;100.00
18533;BME280;9396;51.510;11.934;2023-02-18T12:21:09;100164.94;;;11.96;100.00
18533;BME280;9396;51.510;11.934;2023-02-18T12:23:45;100168.44;;;11.88;100.00
18533;BME280;9396;51.510;11.934;2023-02-18T12:26:22;100176.59;;;11.87;100.00
18533;BME280;9396;51.510;11.934;2023-02-18T12:29:04;100168.78;;;11.85;100.00
18533;BME280;9396;51.510;11.934;2023-02-18T12:31:58;100171.91;;;11.80;100.00
18533;BME280;9396;51.510;11.934;2023-02-18T12:34:38;100171.59;;;11.92;100.00
18533;BME280;9396;51.510;11.934;2023-02-18T12:37:19;100172.09;;;11.87;100.00
18533;BME280;9396;51.510;11.934;2023-02-18T12:40:02;100170.75;;;11.99;100.00
18533;BME280;9396;51.510;11.934;2023-02-18T12:42:45;100184.56;;;12.19;99.31
18533;BME280;9396;51.510;11.934;2023-02-18T12:45:34;100160.91;;;12.16;98.54
18533;BME280;9396;51.510;11.934;2023-02-18T12:48:31;100174.03;;;12.25;98.13
18533;BME280;9396;51.510;11.934;2023-02-18T12:51:14;100177.84;;;12.31;97.42
18533;BME280;9396;51.510;11.934;2023-02-18T12:53:51;100151.09;;;12.08;97.66
18533;BME280;9396;51.510;11.934;2023-02-18T12:56:44;100166.16;;;12.40;96.54
18533;BME280;9396;51.510;11.934;2023-02-18T12:59:26;100165.31;;;12.39;96.24
18533;BME280;9396;51.510;11.934;2023-02-18T13:02:09;100156.34;;;12.40;96.00
18533;BME280;9396;51.510;11.934;2023-02-18T13:04:51;100165.00;;;12.42;96.82
18533;BME280;9396;51.510;11.934;2023-02-18T13:07:34;100172.34;;;12.40;96.25
18533;BME280;9396;51.510;11.934;2023-02-18T13:10:41;100175.34;;;12.37;96.06
18533;BME280;9396;51.510;11.934;2023-02-18T13:13:11;100169.84;;;12.31;96.08
18533;BME280;9396;51.510;11.934;2023-02-18T13:15:42;100178.03;;;12.29;96.21
18533;BME280;9396;51.510;11.934;2023-02-18T13:18:11;100180.16;;;12.42;96.24